Latest Weather Observations for Leigh Creek

IDS60801

Issued at 6:05 pm CDT Monday 20 October 2014 (issued every 30 minutes, with the page automatically refreshed every 10 minutes)

About weather observations | Map of weather stations | Latest weather observations for SA | Other Formats
Station Details ID: 017110 Name: LEIGH CREEK AIRPORT Lat: -30.60 Lon: 138.42 Height: 258.8 m
Data from the previous 72 hours. | See also: Recent months at Leigh Creek
Date/Time
CDT
Temp
°C
App
Temp
°C
Dew
Point
Rel
Hum
%
Delta-T
°C
Wind Press
QNH
hPa
Press
MSL
hPa
Rain
since 9 am
mm
Dir
 
Spd
km/h
Gust
km/h
Spd
kts
Gust
kts
20/06:00pm 34.8 30.2 -4.3 8 18.2 NNE 11 17 6 9 1018.0 1017.2 0.0
20/05:30pm 35.2 29.1 -4.0 8 18.3 N 19 26 10 14 1017.9 1017.1 0.0
20/05:00pm 35.8 29.4 -5.3 7 19.0 NNE 20 26 11 14 1018.1 1017.3 0.0
20/04:30pm 36.0 29.8 -5.2 7 19.0 NNE 19 26 10 14 1018.1 1017.3 0.0
20/04:00pm 36.2 29.0 -5.0 7 19.1 N 24 37 13 20 1018.4 1017.6 0.0
20/03:30pm 36.2 29.0 -5.0 7 19.1 NNE 24 37 13 20 1018.7 1017.9 0.0
20/03:00pm 36.1 29.3 -5.1 7 19.1 NNE 22 39 12 21 1019.1 1018.4 0.0
20/02:30pm 35.6 28.0 -5.5 7 18.8 N 26 37 14 20 1019.6 1018.9 0.0
20/02:00pm 36.2 29.0 -5.0 7 19.1 N 24 35 13 19 1020.1 1019.4 0.0
20/01:30pm 35.8 29.4 -5.3 7 18.9 WNW 20 22 11 12 1020.4 1019.7 0.0
20/01:00pm 36.4 30.0 -4.9 7 19.3 N 20 28 11 15 1020.8 1020.0 0.0
20/12:30pm 35.3 27.7 -5.7 7 18.7 N 26 39 14 21 1021.2 1020.4 0.0
20/12:00pm 34.7 27.4 -6.1 7 18.4 NNE 24 35 13 19 1021.6 1020.8 0.0
20/11:30am 34.6 26.9 -6.2 7 18.3 N 26 43 14 23 1021.8 1021.0 0.0
20/11:00am 34.1 26.0 -6.5 7 18.1 NNE 28 39 15 21 1022.2 1021.5 0.0
20/10:30am 33.2 24.8 -5.5 8 17.4 NE 30 43 16 23 1022.3 1021.6 0.0
20/10:00am 32.5 23.5 -6.0 8 17.1 NE 33 41 18 22 1022.2 1021.5 0.0
20/09:30am 31.7 24.0 -6.6 8 16.7 NE 26 35 14 19 1022.3 1021.6 0.0
20/09:00am 28.8 25.0 -5.8 10 14.9 WSW 6 9 3 5 1022.3 1021.6 0.0
20/08:30am 24.9 21.0 -6.4 12 12.9 SW 6 7 3 4 1022.1 1021.3 0.0
20/08:00am 22.2 18.2 -5.6 15 11.4 SW 7 9 4 5 1021.9 1021.1 0.0
20/07:30am 20.4 16.9 -6.2 16 10.5 ESE 4 9 2 5 1021.5 1020.7 0.0
20/07:00am 19.4 15.3 -7.0 16 10.2 S 7 9 4 5 1021.1 1020.3 0.0
20/06:30am 19.0 14.8 -7.4 16 10.0 SSE 7 9 4 5 1020.9 1020.1 0.0
20/06:00am 18.0 14.0 -7.4 17 9.6 S 6 7 3 4 1020.9 1020.1 0.0
20/05:30am 18.4 14.3 -7.1 17 9.7 S 7 9 4 5 1020.3 1019.6 0.0
20/05:00am 17.9 13.3 -7.5 17 9.6 S 9 11 5 6 1020.3 1019.6 0.0
20/04:30am 17.0 12.8 -7.5 18 9.1 S 7 9 4 5 1020.2 1019.5 0.0
20/04:00am 18.5 14.3 -7.8 16 9.9 S 7 9 4 5 1020.1 1019.4 0.0
20/03:30am 18.3 14.3 -7.1 17 9.6 S 6 9 3 5 1020.3 1019.6 0.0
20/03:00am 19.5 15.5 -7.8 15 10.4 S 6 7 3 4 1020.2 1019.5 0.0
20/02:30am 19.9 15.3 -7.5 15 10.5 S 9 11 5 6 1020.5 1019.8 0.0
20/02:00am 19.7 15.1 -7.6 15 10.5 SSW 9 11 5 6 1020.5 1019.8 0.0
20/01:30am 21.7 17.6 -6.9 14 11.3 S 7 9 4 5 1020.4 1019.7 0.0
20/01:00am 21.2 17.0 -7.3 14 11.2 SE 7 9 4 5 1020.9 1020.1 0.0
20/12:30am 22.0 18.0 -7.6 13 11.6 ESE 6 7 3 4 1021.0 1020.2 0.0
20/12:00am 23.1 19.1 -7.8 12 12.2 ESE 6 7 3 4 1021.3 1020.5 0.0
 
Date/Time
CDT
Temp
°C
App
Temp
°C
Dew
Point
Rel
Hum
%
Delta-T
°C
Wind Press
QNH
hPa
Press
MSL
hPa
Rain
since 9 am
mm
Dir
 
Spd
km/h
Gust
km/h
Spd
kts
Gust
kts
19/11:30pm 22.9 17.6 -6.9 13 11.9 ESE 13 15 7 8 1021.2 1020.4 0.0
19/11:00pm 24.4 19.1 -6.8 12 12.7 ESE 13 15 7 8 1021.1 1020.3 0.0
19/10:30pm 24.9 19.6 -7.5 11 13.1 E 13 15 7 8 1021.2 1020.4 0.0
19/10:00pm 25.1 19.8 -7.4 11 13.2 ESE 13 15 7 8 1021.3 1020.5 0.0
19/09:30pm 24.1 18.2 -9.4 10 12.9 E 15 17 8 9 1021.0 1020.2 0.0
19/09:00pm 25.9 22.9 -9.4 9 13.9 CALM 0 0 0 0 1020.3 1019.6 0.0
19/08:30pm 27.4 23.3 -8.2 9 14.5 WNW 6 7 3 4 1020.2 1019.5 0.0
19/08:00pm 28.7 24.4 -8.8 8 15.4 WNW 7 9 4 5 1020.0 1019.3 0.0
19/07:30pm 29.6 25.4 -8.1 8 15.7 WNW 7 9 4 5 1019.5 1018.8 0.0
19/07:00pm 31.0 26.7 -8.8 7 16.7 WNW 7 9 4 5 1019.4 1018.7 0.0
19/06:30pm 32.2 27.6 -7.9 7 17.2 NW 9 13 5 7 1019.2 1018.5 0.0
19/06:00pm 32.8 26.9 -9.5 6 17.7 NNW 15 22 8 12 1019.1 1018.4 0.0
19/05:30pm 32.9 28.2 -9.4 6 17.8 N 9 15 5 8 1019.0 1018.3 0.0
19/05:00pm 32.9 28.6 -9.4 6 17.8 NE 7 15 4 8 1019.0 1018.3 0.0
19/04:30pm 34.4 29.0 -8.3 6 18.5 NNW 13 20 7 11 1019.1 1018.4 0.0
19/04:00pm 33.8 27.0 -8.7 6 18.3 N 20 30 11 16 1019.2 1018.5 0.0
19/03:30pm 33.5 28.4 -9.0 6 18.1 WNW 11 19 6 10 1019.1 1018.4 0.0
19/03:00pm 33.1 26.9 -9.2 6 17.9 NNW 17 32 9 17 1019.6 1018.9 0.0
19/02:30pm 33.7 27.1 -8.8 6 18.2 NNW 19 33 10 18 1020.0 1019.3 0.0
19/02:00pm 33.7 27.7 -6.8 7 17.9 NNE 17 24 9 13 1020.3 1019.6 0.0
19/01:30pm 33.2 26.6 -7.2 7 17.7 N 20 32 11 17 1020.8 1020.0 0.0
19/01:00pm 31.8 25.3 -8.2 7 17.0 N 19 30 10 16 1021.2 1020.4 0.0
19/12:30pm 32.0 25.1 -6.3 8 16.8 N 22 33 12 18 1021.6 1020.8 0.0
19/12:00pm 31.5 24.2 -6.7 8 16.6 N 24 32 13 17 1021.9 1021.1 0.0
19/11:30am 31.0 23.2 -7.1 8 16.4 N 26 35 14 19 1022.1 1021.3 0.0
19/11:00am 31.1 23.4 -7.0 8 16.5 N 26 37 14 20 1022.4 1021.7 0.0
19/10:30am 29.9 21.7 -7.9 8 15.9 N 28 35 15 19 1022.5 1021.8 0.0
19/10:00am 29.2 21.1 -6.9 9 15.4 N 28 37 15 20 1022.6 1021.9 0.0
19/09:30am 28.6 20.1 -7.3 9 15.0 NNE 30 43 16 23 1022.3 1021.6 0.0
19/09:00am 27.6 19.9 -6.7 10 14.4 NE 26 33 14 18 1022.2 1021.5 0.0
19/08:30am 25.4 21.8 -7.2 11 13.3 N 4 15 2 8 1022.4 1021.7 0.0
19/08:00am 22.7 19.5 -7.1 13 11.9 N 2 7 1 4 1022.4 1021.7 0.0
19/07:30am 20.1 17.4 -5.7 17 10.3 CALM 0 0 0 0 1022.1 1021.3 0.0
19/07:00am 19.3 16.6 -6.3 17 10.0 CALM 0 7 0 4 1021.6 1020.8 0.0
19/06:30am 19.0 15.9 -6.6 17 9.9 E 2 9 1 5 1021.3 1020.5 0.0
19/06:00am 18.3 14.8 -6.4 18 9.5 NNE 4 15 2 8 1021.0 1020.2 0.0
19/05:30am 14.9 10.9 -6.0 23 7.8 SSE 7 11 4 6 1020.8 1020.0 0.0
19/05:00am 15.7 11.3 -5.9 22 8.2 SSE 9 11 5 6 1020.8 1020.0 0.0
19/04:30am 15.0 10.2 -5.9 23 7.8 S 11 11 6 6 1020.8 1020.0 0.0
19/04:00am 16.8 12.4 -6.3 20 8.8 SE 9 11 5 6 1020.8 1020.0 0.0
19/03:30am 16.5 12.1 -5.9 21 8.6 SSE 9 11 5 6 1020.8 1020.0 0.0
19/03:00am 15.2 10.8 -6.3 22 8.0 S 9 11 5 6 1021.0 1020.2 0.0
19/02:30am 17.0 12.6 -5.5 21 8.7 SE 9 11 5 6 1021.1 1020.3 0.0
19/02:00am 17.2 13.2 -5.9 20 8.9 SSE 7 11 4 6 1021.4 1020.6 0.0
19/01:30am 17.5 13.1 -5.7 20 9.0 SE 9 13 5 7 1021.9 1021.1 0.0
19/01:00am 17.7 13.9 -5.5 20 9.1 SE 6 9 3 5 1022.3 1021.6 0.0
19/12:30am 16.4 12.4 -6.0 21 8.5 SE 7 11 4 6 1022.5 1021.8 0.0
19/12:00am 18.2 13.8 -5.8 19 9.3 ESE 9 13 5 7 1022.2 1021.5 0.0
 
Date/Time
CDT
Temp
°C
App
Temp
°C
Dew
Point
Rel
Hum
%
Delta-T
°C
Wind Press
QNH
hPa
Press
MSL
hPa
Rain
since 9 am
mm
Dir
 
Spd
km/h
Gust
km/h
Spd
kts
Gust
kts
18/11:30pm 19.4 13.4 -6.2 17 10.0 E 17 19 9 10 1022.1 1021.3 0.0
18/11:00pm 19.7 14.5 -6.0 17 10.2 E 13 15 7 8 1022.2 1021.5 0.0
18/10:30pm 20.1 16.0 -6.5 16 10.4 E 7 13 4 7 1022.2 1021.5 0.0
18/10:00pm 21.1 15.9 -6.5 15 11.0 E 13 15 7 8 1022.1 1021.3 0.0
18/09:30pm 22.6 17.3 -7.2 13 11.8 ENE 13 17 7 9 1021.8 1021.0 0.0
18/09:00pm 23.9 17.8 -7.2 12 12.5 NNE 17 17 9 9 1021.6 1020.8 0.0
18/08:30pm 25.0 19.3 -7.5 11 13.1 NNE 15 22 8 12 1021.3 1020.5 0.0
18/08:00pm 24.6 19.4 -6.7 12 12.8 N 13 15 7 8 1021.0 1020.2 0.0
18/07:30pm 27.4 22.1 -6.9 10 14.3 N 13 17 7 9 1020.5 1019.8 0.0
18/07:00pm 29.6 24.1 -5.2 10 15.3 NNW 15 19 8 10 1020.0 1019.3 0.0
18/06:30pm 30.6 25.1 -5.8 9 15.9 NNW 15 19 8 10 1019.7 1019.0 0.0
18/06:00pm 31.0 25.9 -5.5 9 16.1 NNW 13 24 7 13 1019.6 1018.9 0.0
18/05:30pm 31.4 26.7 -5.2 9 16.3 NNW 11 19 6 10 1019.5 1018.8 0.0
18/05:00pm 31.8 26.7 -4.9 9 16.5 NNW 13 19 7 10 1019.4 1018.7 0.0
18/04:30pm 31.6 26.3 -3.7 10 16.2 NNW 15 19 8 10 1019.4 1018.7 0.0
18/04:00pm 31.1 24.8 -4.1 10 16.0 NNW 20 24 11 13 1019.6 1018.9 0.0
18/03:30pm 31.5 26.2 -3.8 10 16.1 NE 15 19 8 10 1019.9 1019.2 0.0
18/03:00pm 31.1 26.5 -4.1 10 15.9 ESE 11 20 6 11 1020.4 1019.7 0.0
18/02:30pm 30.4 23.7 -4.6 10 15.6 N 22 30 12 16 1020.9 1020.1 0.0
18/02:00pm 30.1 24.7 -4.8 10 15.5 NW 15 24 8 13 1021.5 1020.7 0.0
18/01:30pm 30.7 24.0 -4.4 10 15.7 NNE 22 32 12 17 1022.1 1021.3 0.0
18/01:00pm 29.6 23.9 -3.9 11 15.1 NNW 17 24 9 13 1022.5 1021.8 0.0
18/12:30pm 29.4 23.3 -4.1 11 14.9 NE 19 28 10 15 1023.0 1022.3 0.0
18/12:00pm 28.0 22.7 -4.0 12 14.1 N 15 24 8 13 1023.4 1022.7 0.0
18/11:30am 28.2 21.9 -3.9 12 14.2 NE 20 28 11 15 1023.7 1023.0 0.0
18/11:00am 27.7 21.5 -3.2 13 13.9 N 20 35 11 19 1024.1 1023.4 0.0
18/10:30am 27.1 20.5 -3.7 13 13.6 NNE 22 30 12 16 1024.1 1023.4 0.0
18/10:00am 26.2 19.3 -2.4 15 12.9 NNE 24 33 13 18 1024.3 1023.6 0.0
18/09:30am 25.3 18.4 -2.3 16 12.3 NNE 24 32 13 17 1024.3 1023.6 0.0
18/09:00am 24.5 17.7 -2.1 17 11.8 NNE 24 30 13 16 1024.3 1023.6 0.0
18/08:30am 22.8 18.5 -1.3 20 10.7 ENE 11 15 6 8 1024.5 1023.8 0.0
18/08:00am 18.5 14.9 -1.9 25 8.7 SE 7 9 4 5 1024.2 1023.5 0.0
18/07:30am 15.4 11.7 -3.0 28 7.4 SE 7 11 4 6 1023.9 1023.2 0.0
18/07:00am 13.8 9.2 -3.9 29 6.9 ESE 11 15 6 8 1023.5 1022.8 0.0
18/06:30am 13.4 8.8 -3.8 30 6.6 ESE 11 13 6 7 1023.1 1022.4 0.0
18/06:00am 13.3 8.3 -4.3 29 6.7 ESE 13 15 7 8 1022.7 1022.0 0.0
18/05:30am 15.1 10.5 -3.7 27 7.4 ESE 11 13 6 7 1022.6 1021.9 0.0
18/05:00am 14.5 10.6 -4.2 27 7.3 ESE 7 9 4 5 1022.4 1021.7 0.0
18/04:30am 13.9 9.6 -5.3 26 7.2 SE 9 11 5 6 1022.3 1021.6 0.0
18/04:00am 14.9 10.2 -5.5 24 7.7 E 11 13 6 7 1022.4 1021.7 0.0
18/03:30am 15.0 10.3 -5.4 24 7.7 E 11 13 6 7 1022.6 1021.9 0.0
18/03:00am 15.1 10.8 -5.3 24 7.8 ESE 9 11 5 6 1022.6 1021.9 0.0
18/02:30am 15.1 11.3 -5.3 24 7.8 E 6 11 3 6 1022.8 1022.1 0.0
18/02:00am 16.2 13.5 -5.5 22 8.4 CALM 0 0 0 0 1022.8 1022.1 0.0
18/01:30am 16.6 13.9 -5.8 21 8.6 CALM 0 0 0 0 1022.9 1022.2 0.0
18/01:00am 17.9 15.3 -5.3 20 9.1 CALM 0 6 0 3 1022.8 1022.1 0.0
18/12:30am 18.0 15.3 -5.9 19 9.3 CALM 0 0 0 0 1022.8 1022.1 0.0
18/12:00am 18.2 13.0 -6.5 18 9.5 E 13 17 7 9 1022.8 1022.1 0.0
 
Date/Time
CDT
Temp
°C
App
Temp
°C
Dew
Point
Rel
Hum
%
Delta-T
°C
Wind Press
QNH
hPa
Press
MSL
hPa
Rain
since 9 am
mm
Dir
 
Spd
km/h
Gust
km/h
Spd
kts
Gust
kts
17/11:30pm 19.1 14.3 -5.7 18 9.8 ESE 11 15 6 8 1022.9 1022.2 0.0
17/11:00pm 19.5 14.8 -4.7 19 9.8 ESE 11 15 6 8 1022.9 1022.2 0.0
17/10:30pm 20.1 15.2 -3.5 20 9.8 E 13 15 7 8 1023.0 1022.3 0.0
17/10:00pm 21.5 15.9 -3.1 19 10.5 E 17 20 9 11 1022.9 1022.2 0.0
17/09:30pm 22.8 16.7 -2.7 18 11.0 E 20 30 11 16 1022.7 1022.0 0.0
17/09:00pm 23.1 16.9 -3.3 17 11.3 E 20 26 11 14 1022.3 1021.6 0.0
17/08:30pm 24.5 18.4 -3.8 15 12.2 E 19 22 10 12 1022.0 1021.2 0.0
17/08:00pm 24.2 20.2 -5.9 13 12.5 NNW 7 9 4 5 1021.4 1020.6 0.0
17/07:30pm 25.6 20.8 -5.9 12 13.2 NNW 11 15 6 8 1021.0 1020.2 0.0
17/07:00pm 28.0 23.5 -6.4 10 14.6 NNW 9 15 5 8 1020.7 1019.9 0.0
17/06:30pm 28.5 25.0 -6.0 10 14.8 NW 4 11 2 6 1020.5 1019.8 0.0

Other Formats:

Comma delimited format used in spreadsheet applications
http://www.bom.gov.au/fwo/IDS60801/IDS60801.94674.axf

JavaScript Object Notation format (JSON) in row-major order
http://www.bom.gov.au/fwo/IDS60801/IDS60801.94674.json